sensor_id;sensor_type;location;lat;lon;timestamp;temperature;humidity
45849;DHT22;31567;54.600;9.842;2023-06-24T00:01:39;16.50;93.80
45849;DHT22;31567;54.600;9.842;2023-06-24T00:05:19;16.40;93.90
45849;DHT22;31567;54.600;9.842;2023-06-24T00:08:58;16.40;93.90
45849;DHT22;31567;54.600;9.842;2023-06-24T00:12:42;16.40;93.90
45849;DHT22;31567;54.600;9.842;2023-06-24T00:16:21;16.30;94.10
45849;DHT22;31567;54.600;9.842;2023-06-24T00:20:06;16.30;94.00
45849;DHT22;31567;54.600;9.842;2023-06-24T00:23:50;16.20;94.00
45849;DHT22;31567;54.600;9.842;2023-06-24T00:27:30;16.20;94.10
45849;DHT22;31567;54.600;9.842;2023-06-24T00:31:09;16.20;94.10
45849;DHT22;31567;54.600;9.842;2023-06-24T00:34:50;16.10;94.10
45849;DHT22;31567;54.600;9.842;2023-06-24T00:38:30;16.10;94.20
45849;DHT22;31567;54.600;9.842;2023-06-24T00:42:11;16.10;94.30
45849;DHT22;31567;54.600;9.842;2023-06-24T00:45:51;16.00;94.70
45849;DHT22;31567;54.600;9.842;2023-06-24T00:49:32;15.90;94.50
45849;DHT22;31567;54.600;9.842;2023-06-24T00:53:11;15.80;94.70
45849;DHT22;31567;54.600;9.842;2023-06-24T00:56:51;15.80;95.00
45849;DHT22;31567;54.600;9.842;2023-06-24T01:00:34;15.80;95.20
45849;DHT22;31567;54.600;9.842;2023-06-24T01:04:13;15.70;95.10
45849;DHT22;31567;54.600;9.842;2023-06-24T01:07:56;15.80;95.20
45849;DHT22;31567;54.600;9.842;2023-06-24T01:11:36;15.80;95.30
45849;DHT22;31567;54.600;9.842;2023-06-24T01:15:17;15.80;95.40
45849;DHT22;31567;54.600;9.842;2023-06-24T01:19:02;15.80;95.30
45849;DHT22;31567;54.600;9.842;2023-06-24T01:34:40;15.50;94.90
45849;DHT22;31567;54.600;9.842;2023-06-24T01:38:36;15.40;95.00
45849;DHT22;31567;54.600;9.842;2023-06-24T01:42:21;15.40;95.00
45849;DHT22;31567;54.600;9.842;2023-06-24T01:46:02;15.30;95.00
45849;DHT22;31567;54.600;9.842;2023-06-24T01:49:44;15.10;95.00
45849;DHT22;31567;54.600;9.842;2023-06-24T01:53:27;15.00;95.20
45849;DHT22;31567;54.600;9.842;2023-06-24T01:57:09;15.00;95.40
45849;DHT22;31567;54.600;9.842;2023-06-24T02:00:50;15.10;95.60
45849;DHT22;31567;54.600;9.842;2023-06-24T02:04:31;15.10;95.60
45849;DHT22;31567;54.600;9.842;2023-06-24T02:08:12;15.00;95.70
45849;DHT22;31567;54.600;9.842;2023-06-24T02:11:53;15.00;95.80
45849;DHT22;31567;54.600;9.842;2023-06-24T02:15:35;14.90;95.90
45849;DHT22;31567;54.600;9.842;2023-06-24T02:19:16;15.00;96.00
45849;DHT22;31567;54.600;9.842;2023-06-24T02:22:58;14.80;96.00
45849;DHT22;31567;54.600;9.842;2023-06-24T02:26:38;14.90;96.00
45849;DHT22;31567;54.600;9.842;2023-06-24T02:30:21;14.80;96.10
45849;DHT22;31567;54.600;9.842;2023-06-24T02:34:01;14.80;96.00
45849;DHT22;31567;54.600;9.842;2023-06-24T02:37:40;14.70;96.10
45849;DHT22;31567;54.600;9.842;2023-06-24T02:41:20;14.70;96.10
45849;DHT22;31567;54.600;9.842;2023-06-24T02:45:00;14.60;95.90
45849;DHT22;31567;54.600;9.842;2023-06-24T02:48:40;14.50;95.90
45849;DHT22;31567;54.600;9.842;2023-06-24T02:52:21;14.40;95.80
45849;DHT22;31567;54.600;9.842;2023-06-24T02:56:01;14.30;96.00
45849;DHT22;31567;54.600;9.842;2023-06-24T02:59:43;14.20;96.10
45849;DHT22;31567;54.600;9.842;2023-06-24T03:03:23;14.10;96.20
45849;DHT22;31567;54.600;9.842;2023-06-24T03:07:02;14.10;96.30
45849;DHT22;31567;54.600;9.842;2023-06-24T03:10:42;14.10;96.40
45849;DHT22;31567;54.600;9.842;2023-06-24T03:14:22;14.10;96.60
45849;DHT22;31567;54.600;9.842;2023-06-24T03:18:01;14.00;96.60
45849;DHT22;31567;54.600;9.842;2023-06-24T03:21:41;14.00;96.70
45849;DHT22;31567;54.600;9.842;2023-06-24T03:25:20;13.90;96.80
45849;DHT22;31567;54.600;9.842;2023-06-24T03:29:00;13.90;96.60
45849;DHT22;31567;54.600;9.842;2023-06-24T03:32:40;13.90;96.70
45849;DHT22;31567;54.600;9.842;2023-06-24T03:36:20;13.90;96.90
45849;DHT22;31567;54.600;9.842;2023-06-24T03:39:59;13.80;97.10
45849;DHT22;31567;54.600;9.842;2023-06-24T03:43:39;13.90;97.30
45849;DHT22;31567;54.600;9.842;2023-06-24T03:47:21;13.90;97.50
45849;DHT22;31567;54.600;9.842;2023-06-24T03:51:00;14.00;97.60
45849;DHT22;31567;54.600;9.842;2023-06-24T03:54:40;14.10;97.70
45849;DHT22;31567;54.600;9.842;2023-06-24T03:58:19;14.20;98.00
45849;DHT22;31567;54.600;9.842;2023-06-24T04:02:00;14.40;98.30
45849;DHT22;31567;54.600;9.842;2023-06-24T04:05:40;14.60;98.60
45849;DHT22;31567;54.600;9.842;2023-06-24T04:09:19;14.80;98.90
45849;DHT22;31567;54.600;9.842;2023-06-24T04:12:59;15.00;99.20
45849;DHT22;31567;54.600;9.842;2023-06-24T04:16:38;15.10;99.30
45849;DHT22;31567;54.600;9.842;2023-06-24T04:20:18;15.30;99.20
45849;DHT22;31567;54.600;9.842;2023-06-24T04:23:57;15.40;99.10
45849;DHT22;31567;54.600;9.842;2023-06-24T04:27:37;15.50;99.10
45849;DHT22;31567;54.600;9.842;2023-06-24T04:31:16;15.60;99.10
45849;DHT22;31567;54.600;9.842;2023-06-24T04:34:58;15.70;99.10
45849;DHT22;31567;54.600;9.842;2023-06-24T04:38:39;15.70;99.10
45849;DHT22;31567;54.600;9.842;2023-06-24T04:42:18;15.70;99.10
45849;DHT22;31567;54.600;9.842;2023-06-24T04:45:58;15.80;99.20
45849;DHT22;31567;54.600;9.842;2023-06-24T04:49:37;15.90;99.30
45849;DHT22;31567;54.600;9.842;2023-06-24T04:53:17;16.00;99.30
45849;DHT22;31567;54.600;9.842;2023-06-24T04:56:57;16.10;99.30
45849;DHT22;31567;54.600;9.842;2023-06-24T05:00:36;16.20;99.50
45849;DHT22;31567;54.600;9.842;2023-06-24T05:04:16;16.40;99.30
45849;DHT22;31567;54.600;9.842;2023-06-24T05:07:56;16.50;99.40
45849;DHT22;31567;54.600;9.842;2023-06-24T05:11:35;16.60;99.30
45849;DHT22;31567;54.600;9.842;2023-06-24T05:15:15;16.70;99.40
45849;DHT22;31567;54.600;9.842;2023-06-24T05:18:55;16.80;99.00
45849;DHT22;31567;54.600;9.842;2023-06-24T05:22:35;16.90;98.90
45849;DHT22;31567;54.600;9.842;2023-06-24T05:26:14;17.00;98.70
45849;DHT22;31567;54.600;9.842;2023-06-24T05:29:54;17.10;98.60
45849;DHT22;31567;54.600;9.842;2023-06-24T05:33:33;17.10;98.50
45849;DHT22;31567;54.600;9.842;2023-06-24T05:37:13;17.20;98.50
45849;DHT22;31567;54.600;9.842;2023-06-24T05:40:53;17.20;98.40
45849;DHT22;31567;54.600;9.842;2023-06-24T05:44:33;17.20;98.30
45849;DHT22;31567;54.600;9.842;2023-06-24T05:48:13;17.20;98.30
45849;DHT22;31567;54.600;9.842;2023-06-24T05:51:53;17.40;98.40
45849;DHT22;31567;54.600;9.842;2023-06-24T05:55:33;17.40;98.30
45849;DHT22;31567;54.600;9.842;2023-06-24T05:59:13;17.50;98.20
45849;DHT22;31567;54.600;9.842;2023-06-24T06:02:52;17.70;98.20
45849;DHT22;31567;54.600;9.842;2023-06-24T06:06:32;17.80;98.10
45849;DHT22;31567;54.600;9.842;2023-06-24T06:10:11;18.00;98.10
45849;DHT22;31567;54.600;9.842;2023-06-24T06:13:51;18.20;98.00
45849;DHT22;31567;54.600;9.842;2023-06-24T06:17:32;18.40;97.70
45849;DHT22;31567;54.600;9.842;2023-06-24T06:21:12;18.50;97.60
45849;DHT22;31567;54.600;9.842;2023-06-24T06:24:52;18.70;97.30
45849;DHT22;31567;54.600;9.842;2023-06-24T06:28:31;18.80;97.00
45849;DHT22;31567;54.600;9.842;2023-06-24T06:32:11;18.80;96.70
45849;DHT22;31567;54.600;9.842;2023-06-24T06:35:50;18.90;96.70
45849;DHT22;31567;54.600;9.842;2023-06-24T06:39:30;18.90;96.60
45849;DHT22;31567;54.600;9.842;2023-06-24T06:43:09;18.90;96.50
45849;DHT22;31567;54.600;9.842;2023-06-24T06:46:49;18.90;96.30
45849;DHT22;31567;54.600;9.842;2023-06-24T06:50:28;19.00;96.40
45849;DHT22;31567;54.600;9.842;2023-06-24T06:54:08;19.00;96.30
45849;DHT22;31567;54.600;9.842;2023-06-24T06:57:47;19.00;96.20
45849;DHT22;31567;54.600;9.842;2023-06-24T07:01:27;19.00;96.50
45849;DHT22;31567;54.600;9.842;2023-06-24T07:05:07;19.20;96.40
45849;DHT22;31567;54.600;9.842;2023-06-24T07:08:46;19.30;96.00
45849;DHT22;31567;54.600;9.842;2023-06-24T07:12:26;19.40;95.80
45849;DHT22;31567;54.600;9.842;2023-06-24T07:16:06;19.40;95.70
45849;DHT22;31567;54.600;9.842;2023-06-24T07:19:45;19.50;95.70
45849;DHT22;31567;54.600;9.842;2023-06-24T07:23:25;19.60;95.40
45849;DHT22;31567;54.600;9.842;2023-06-24T07:27:04;19.60;95.30
45849;DHT22;31567;54.600;9.842;2023-06-24T07:30:44;19.60;95.20
45849;DHT22;31567;54.600;9.842;2023-06-24T07:34:24;19.60;95.00
45849;DHT22;31567;54.600;9.842;2023-06-24T07:38:03;19.70;95.00
45849;DHT22;31567;54.600;9.842;2023-06-24T07:41:43;19.70;95.00
45849;DHT22;31567;54.600;9.842;2023-06-24T07:45:23;19.80;95.00
45849;DHT22;31567;54.600;9.842;2023-06-24T07:49:03;20.00;94.90
45849;DHT22;31567;54.600;9.842;2023-06-24T07:52:43;20.00;94.70
45849;DHT22;31567;54.600;9.842;2023-06-24T07:56:22;20.10;94.40
45849;DHT22;31567;54.600;9.842;2023-06-24T08:00:03;20.20;94.30
45849;DHT22;31567;54.600;9.842;2023-06-24T08:03:42;20.20;94.00
45849;DHT22;31567;54.600;9.842;2023-06-24T08:07:22;20.20;93.80
45849;DHT22;31567;54.600;9.842;2023-06-24T08:11:03;20.30;93.90
45849;DHT22;31567;54.600;9.842;2023-06-24T08:14:42;20.30;93.90
45849;DHT22;31567;54.600;9.842;2023-06-24T08:18:22;20.30;93.60
45849;DHT22;31567;54.600;9.842;2023-06-24T08:22:02;20.50;93.50
45849;DHT22;31567;54.600;9.842;2023-06-24T08:25:42;20.80;93.10
45849;DHT22;31567;54.600;9.842;2023-06-24T08:29:21;21.00;92.30
45849;DHT22;31567;54.600;9.842;2023-06-24T08:33:01;21.30;91.90
45849;DHT22;31567;54.600;9.842;2023-06-24T08:36:40;21.40;91.60
45849;DHT22;31567;54.600;9.842;2023-06-24T08:40:20;21.60;91.40
45849;DHT22;31567;54.600;9.842;2023-06-24T08:43:59;21.70;92.10
45849;DHT22;31567;54.600;9.842;2023-06-24T08:47:40;21.90;92.10
45849;DHT22;31567;54.600;9.842;2023-06-24T08:51:23;22.00;91.90
45849;DHT22;31567;54.600;9.842;2023-06-24T08:55:06;22.10;91.60
45849;DHT22;31567;54.600;9.842;2023-06-24T08:58:46;22.20;91.60
45849;DHT22;31567;54.600;9.842;2023-06-24T09:02:26;22.40;90.80
45849;DHT22;31567;54.600;9.842;2023-06-24T09:06:06;22.80;90.50
45849;DHT22;31567;54.600;9.842;2023-06-24T09:09:45;23.00;89.70
45849;DHT22;31567;54.600;9.842;2023-06-24T09:13:34;23.20;88.80
45849;DHT22;31567;54.600;9.842;2023-06-24T09:17:15;23.30;86.10
45849;DHT22;31567;54.600;9.842;2023-06-24T09:20:55;23.40;87.00
45849;DHT22;31567;54.600;9.842;2023-06-24T09:24:36;23.60;85.70
45849;DHT22;31567;54.600;9.842;2023-06-24T09:28:15;23.70;84.40
45849;DHT22;31567;54.600;9.842;2023-06-24T09:31:55;23.80;83.50
45849;DHT22;31567;54.600;9.842;2023-06-24T09:35:36;23.90;83.90
45849;DHT22;31567;54.600;9.842;2023-06-24T09:39:16;24.00;83.70
45849;DHT22;31567;54.600;9.842;2023-06-24T09:42:58;23.90;83.80
45849;DHT22;31567;54.600;9.842;2023-06-24T09:46:41;24.00;84.60
45849;DHT22;31567;54.600;9.842;2023-06-24T09:50:21;24.10;82.60
45849;DHT22;31567;54.600;9.842;2023-06-24T09:54:01;24.20;82.80
45849;DHT22;31567;54.600;9.842;2023-06-24T09:57:50;24.30;82.50
45849;DHT22;31567;54.600;9.842;2023-06-24T10:01:35;24.50;82.30
45849;DHT22;31567;54.600;9.842;2023-06-24T10:05:15;24.50;82.80
45849;DHT22;31567;54.600;9.842;2023-06-24T10:08:56;24.70;81.60
45849;DHT22;31567;54.600;9.842;2023-06-24T10:12:36;24.90;80.70
45849;DHT22;31567;54.600;9.842;2023-06-24T10:16:16;24.80;81.40
45849;DHT22;31567;54.600;9.842;2023-06-24T10:19:55;25.00;80.50
45849;DHT22;31567;54.600;9.842;2023-06-24T10:23:50;24.80;79.50
45849;DHT22;31567;54.600;9.842;2023-06-24T10:27:38;24.80;77.20
45849;DHT22;31567;54.600;9.842;2023-06-24T10:31:18;24.90;76.20
45849;DHT22;31567;54.600;9.842;2023-06-24T10:34:58;25.10;77.10
45849;DHT22;31567;54.600;9.842;2023-06-24T10:38:38;25.40;76.00
45849;DHT22;31567;54.600;9.842;2023-06-24T10:42:36;25.60;74.30
45849;DHT22;31567;54.600;9.842;2023-06-24T10:46:16;25.60;74.60
45849;DHT22;31567;54.600;9.842;2023-06-24T10:49:56;25.40;74.40
45849;DHT22;31567;54.600;9.842;2023-06-24T10:53:36;25.50;74.80
45849;DHT22;31567;54.600;9.842;2023-06-24T10:57:21;25.30;75.40
45849;DHT22;31567;54.600;9.842;2023-06-24T11:01:08;25.40;76.40
45849;DHT22;31567;54.600;9.842;2023-06-24T11:04:56;25.60;75.90
45849;DHT22;31567;54.600;9.842;2023-06-24T11:08:43;25.80;74.70
45849;DHT22;31567;54.600;9.842;2023-06-24T11:12:23;25.80;75.20
45849;DHT22;31567;54.600;9.842;2023-06-24T11:16:04;26.00;75.10
45849;DHT22;31567;54.600;9.842;2023-06-24T11:19:43;26.30;75.90
45849;DHT22;31567;54.600;9.842;2023-06-24T11:23:23;26.30;74.70
45849;DHT22;31567;54.600;9.842;2023-06-24T11:27:04;26.40;75.00
45849;DHT22;31567;54.600;9.842;2023-06-24T11:30:43;26.50;73.80
45849;DHT22;31567;54.600;9.842;2023-06-24T11:34:23;26.60;74.20
45849;DHT22;31567;54.600;9.842;2023-06-24T11:38:03;26.80;72.00
45849;DHT22;31567;54.600;9.842;2023-06-24T11:41:43;26.60;72.70
45849;DHT22;31567;54.600;9.842;2023-06-24T11:45:24;26.60;72.90
45849;DHT22;31567;54.600;9.842;2023-06-24T11:49:08;26.60;73.10
45849;DHT22;31567;54.600;9.842;2023-06-24T11:52:48;26.80;72.80
45849;DHT22;31567;54.600;9.842;2023-06-24T11:56:35;27.00;73.60
45849;DHT22;31567;54.600;9.842;2023-06-24T12:00:16;27.10;72.60
45849;DHT22;31567;54.600;9.842;2023-06-24T12:03:55;27.40;73.10
45849;DHT22;31567;54.600;9.842;2023-06-24T12:07:35;27.70;71.90
45849;DHT22;31567;54.600;9.842;2023-06-24T12:11:14;27.70;72.80
45849;DHT22;31567;54.600;9.842;2023-06-24T12:14:54;27.70;71.90
45849;DHT22;31567;54.600;9.842;2023-06-24T12:18:34;27.80;70.30
45849;DHT22;31567;54.600;9.842;2023-06-24T12:22:14;28.00;70.70
45849;DHT22;31567;54.600;9.842;2023-06-24T12:25:53;28.00;70.80
45849;DHT22;31567;54.600;9.842;2023-06-24T12:29:33;27.70;70.00
45849;DHT22;31567;54.600;9.842;2023-06-24T12:33:13;27.60;70.00
45849;DHT22;31567;54.600;9.842;2023-06-24T12:36:52;27.50;70.80
45849;DHT22;31567;54.600;9.842;2023-06-24T12:40:32;27.60;71.60
45849;DHT22;31567;54.600;9.842;2023-06-24T12:44:11;27.90;71.80
45849;DHT22;31567;54.600;9.842;2023-06-24T12:47:51;28.10;69.60
45849;DHT22;31567;54.600;9.842;2023-06-24T12:51:31;28.20;70.00
45849;DHT22;31567;54.600;9.842;2023-06-24T12:55:11;28.20;70.10
45849;DHT22;31567;54.600;9.842;2023-06-24T12:58:50;28.00;68.60
45849;DHT22;31567;54.600;9.842;2023-06-24T13:02:30;28.00;69.30
45849;DHT22;31567;54.600;9.842;2023-06-24T13:06:10;27.90;68.50
45849;DHT22;31567;54.600;9.842;2023-06-24T13:09:49;27.80;68.80
45849;DHT22;31567;54.600;9.842;2023-06-24T13:13:29;27.80;68.70
45849;DHT22;31567;54.600;9.842;2023-06-24T13:17:08;27.90;67.90
45849;DHT22;31567;54.600;9.842;2023-06-24T13:20:48;28.00;68.00
45849;DHT22;31567;54.600;9.842;2023-06-24T13:24:28;28.10;67.00
45849;DHT22;31567;54.600;9.842;2023-06-24T13:28:07;28.10;67.10
45849;DHT22;31567;54.600;9.842;2023-06-24T13:31:47;27.90;66.30
45849;DHT22;31567;54.600;9.842;2023-06-24T13:35:27;27.80;67.60
45849;DHT22;31567;54.600;9.842;2023-06-24T13:39:08;27.90;66.70
45849;DHT22;31567;54.600;9.842;2023-06-24T13:42:48;28.00;66.20
45849;DHT22;31567;54.600;9.842;2023-06-24T13:46:28;28.00;66.00
45849;DHT22;31567;54.600;9.842;2023-06-24T13:50:08;28.00;66.10
45849;DHT22;31567;54.600;9.842;2023-06-24T13:53:49;28.10;65.50
45849;DHT22;31567;54.600;9.842;2023-06-24T13:57:32;28.20;65.00
45849;DHT22;31567;54.600;9.842;2023-06-24T14:01:11;28.10;64.60
45849;DHT22;31567;54.600;9.842;2023-06-24T14:04:51;28.30;64.30
45849;DHT22;31567;54.600;9.842;2023-06-24T14:08:32;28.40;64.20
45849;DHT22;31567;54.600;9.842;2023-06-24T14:12:11;28.30;64.60
45849;DHT22;31567;54.600;9.842;2023-06-24T14:15:51;28.20;63.80
45849;DHT22;31567;54.600;9.842;2023-06-24T14:19:30;28.00;64.70
45849;DHT22;31567;54.600;9.842;2023-06-24T14:23:10;27.80;65.30
45849;DHT22;31567;54.600;9.842;2023-06-24T14:26:50;27.70;66.20
45849;DHT22;31567;54.600;9.842;2023-06-24T14:30:29;27.60;66.20
45849;DHT22;31567;54.600;9.842;2023-06-24T14:34:09;27.60;66.10
45849;DHT22;31567;54.600;9.842;2023-06-24T14:37:48;27.60;66.80
45849;DHT22;31567;54.600;9.842;2023-06-24T14:41:28;27.60;67.40
45849;DHT22;31567;54.600;9.842;2023-06-24T14:45:08;27.40;66.40
45849;DHT22;31567;54.600;9.842;2023-06-24T14:48:48;27.40;67.00
45849;DHT22;31567;54.600;9.842;2023-06-24T14:52:27;27.70;66.90
45849;DHT22;31567;54.600;9.842;2023-06-24T14:56:07;27.70;65.50
45849;DHT22;31567;54.600;9.842;2023-06-24T14:59:46;27.70;65.70
45849;DHT22;31567;54.600;9.842;2023-06-24T15:03:26;27.60;66.40
45849;DHT22;31567;54.600;9.842;2023-06-24T15:07:05;27.50;66.80
45849;DHT22;31567;54.600;9.842;2023-06-24T15:10:45;27.40;67.20
45849;DHT22;31567;54.600;9.842;2023-06-24T15:14:24;27.40;67.00
45849;DHT22;31567;54.600;9.842;2023-06-24T15:18:04;27.40;66.50
45849;DHT22;31567;54.600;9.842;2023-06-24T15:21:45;27.30;68.50
45849;DHT22;31567;54.600;9.842;2023-06-24T15:25:24;27.30;69.00
45849;DHT22;31567;54.600;9.842;2023-06-24T15:29:04;27.30;69.80
45849;DHT22;31567;54.600;9.842;2023-06-24T15:32:43;27.20;70.20
45849;DHT22;31567;54.600;9.842;2023-06-24T15:36:24;27.00;69.70
45849;DHT22;31567;54.600;9.842;2023-06-24T15:40:06;26.90;69.90
45849;DHT22;31567;54.600;9.842;2023-06-24T15:43:46;26.80;70.70
45849;DHT22;31567;54.600;9.842;2023-06-24T15:47:25;26.70;70.70
45849;DHT22;31567;54.600;9.842;2023-06-24T15:51:07;26.60;71.50
45849;DHT22;31567;54.600;9.842;2023-06-24T15:54:46;26.60;71.50
45849;DHT22;31567;54.600;9.842;2023-06-24T15:58:26;26.60;71.70
45849;DHT22;31567;54.600;9.842;2023-06-24T16:02:06;26.60;72.30
45849;DHT22;31567;54.600;9.842;2023-06-24T16:05:45;26.70;72.20
45849;DHT22;31567;54.600;9.842;2023-06-24T16:09:25;26.70;71.90
45849;DHT22;31567;54.600;9.842;2023-06-24T16:13:04;26.60;72.20
45849;DHT22;31567;54.600;9.842;2023-06-24T16:16:44;26.60;72.80
45849;DHT22;31567;54.600;9.842;2023-06-24T16:20:23;26.50;73.10
45849;DHT22;31567;54.600;9.842;2023-06-24T16:24:03;26.40;73.50
45849;DHT22;31567;54.600;9.842;2023-06-24T16:27:43;26.40;73.80
45849;DHT22;31567;54.600;9.842;2023-06-24T16:31:22;26.20;71.60
45849;DHT22;31567;54.600;9.842;2023-06-24T16:35:02;26.10;70.70
45849;DHT22;31567;54.600;9.842;2023-06-24T16:38:41;26.10;70.60
45849;DHT22;31567;54.600;9.842;2023-06-24T16:42:21;26.10;70.80
45849;DHT22;31567;54.600;9.842;2023-06-24T16:46:01;26.00;70.60
45849;DHT22;31567;54.600;9.842;2023-06-24T16:49:40;25.90;71.00
45849;DHT22;31567;54.600;9.842;2023-06-24T16:53:20;26.00;71.20
45849;DHT22;31567;54.600;9.842;2023-06-24T16:56:59;25.90;72.00
45849;DHT22;31567;54.600;9.842;2023-06-24T17:00:39;25.90;72.00
45849;DHT22;31567;54.600;9.842;2023-06-24T17:04:18;25.90;72.30
45849;DHT22;31567;54.600;9.842;2023-06-24T17:07:58;25.90;72.60
45849;DHT22;31567;54.600;9.842;2023-06-24T17:11:37;25.90;72.80
45849;DHT22;31567;54.600;9.842;2023-06-24T17:15:17;25.80;72.60
45849;DHT22;31567;54.600;9.842;2023-06-24T17:18:57;25.80;72.30
45849;DHT22;31567;54.600;9.842;2023-06-24T17:22:36;25.80;71.90
45849;DHT22;31567;54.600;9.842;2023-06-24T17:26:16;25.90;72.30
45849;DHT22;31567;54.600;9.842;2023-06-24T17:29:56;25.90;72.40
45849;DHT22;31567;54.600;9.842;2023-06-24T17:33:35;25.80;72.00
45849;DHT22;31567;54.600;9.842;2023-06-24T17:37:15;25.70;71.70
45849;DHT22;31567;54.600;9.842;2023-06-24T17:40:55;25.70;72.20
45849;DHT22;31567;54.600;9.842;2023-06-24T17:44:35;25.70;72.30
45849;DHT22;31567;54.600;9.842;2023-06-24T17:48:14;25.70;71.90
45849;DHT22;31567;54.600;9.842;2023-06-24T17:51:54;25.60;71.60
45849;DHT22;31567;54.600;9.842;2023-06-24T17:55:33;25.60;71.90
45849;DHT22;31567;54.600;9.842;2023-06-24T17:59:14;25.50;71.70
45849;DHT22;31567;54.600;9.842;2023-06-24T18:02:54;25.60;72.20
45849;DHT22;31567;54.600;9.842;2023-06-24T18:06:33;25.50;72.30
45849;DHT22;31567;54.600;9.842;2023-06-24T18:10:13;25.60;72.80
45849;DHT22;31567;54.600;9.842;2023-06-24T18:13:52;25.40;73.00
45849;DHT22;31567;54.600;9.842;2023-06-24T18:17:32;25.40;73.00
45849;DHT22;31567;54.600;9.842;2023-06-24T18:21:12;25.40;73.30
45849;DHT22;31567;54.600;9.842;2023-06-24T18:24:52;25.40;73.80
45849;DHT22;31567;54.600;9.842;2023-06-24T18:28:32;25.30;74.00
45849;DHT22;31567;54.600;9.842;2023-06-24T18:32:12;25.30;73.90
45849;DHT22;31567;54.600;9.842;2023-06-24T18:35:51;25.20;74.30
45849;DHT22;31567;54.600;9.842;2023-06-24T18:39:31;25.20;74.50
45849;DHT22;31567;54.600;9.842;2023-06-24T18:43:10;25.20;74.50
45849;DHT22;31567;54.600;9.842;2023-06-24T18:46:50;25.20;74.50
45849;DHT22;31567;54.600;9.842;2023-06-24T18:50:29;25.30;74.60
45849;DHT22;31567;54.600;9.842;2023-06-24T18:54:09;25.30;74.60
45849;DHT22;31567;54.600;9.842;2023-06-24T18:57:49;25.30;74.70
45849;DHT22;31567;54.600;9.842;2023-06-24T19:01:28;25.60;74.90
45849;DHT22;31567;54.600;9.842;2023-06-24T19:05:08;25.80;74.50
45849;DHT22;31567;54.600;9.842;2023-06-24T19:08:49;26.20;73.90
45849;DHT22;31567;54.600;9.842;2023-06-24T19:12:31;26.30;73.10
45849;DHT22;31567;54.600;9.842;2023-06-24T19:16:11;26.20;73.10
45849;DHT22;31567;54.600;9.842;2023-06-24T19:19:50;26.20;73.50
45849;DHT22;31567;54.600;9.842;2023-06-24T19:23:30;26.00;73.70
45849;DHT22;31567;54.600;9.842;2023-06-24T19:27:09;25.80;74.00
45849;DHT22;31567;54.600;9.842;2023-06-24T19:30:49;25.70;74.40
45849;DHT22;31567;54.600;9.842;2023-06-24T19:34:29;25.50;74.50
45849;DHT22;31567;54.600;9.842;2023-06-24T19:38:08;25.40;74.90
45849;DHT22;31567;54.600;9.842;2023-06-24T19:41:48;25.20;75.60
45849;DHT22;31567;54.600;9.842;2023-06-24T19:45:27;25.10;76.40
45849;DHT22;31567;54.600;9.842;2023-06-24T19:49:07;25.00;77.40
45849;DHT22;31567;54.600;9.842;2023-06-24T19:52:46;24.80;78.70
45849;DHT22;31567;54.600;9.842;2023-06-24T19:56:26;24.60;79.40
45849;DHT22;31567;54.600;9.842;2023-06-24T20:00:06;24.50;80.20
45849;DHT22;31567;54.600;9.842;2023-06-24T20:03:46;24.30;80.90
45849;DHT22;31567;54.600;9.842;2023-06-24T20:07:25;24.20;81.10
45849;DHT22;31567;54.600;9.842;2023-06-24T20:11:05;24.00;82.00
45849;DHT22;31567;54.600;9.842;2023-06-24T20:14:45;23.90;82.40
45849;DHT22;31567;54.600;9.842;2023-06-24T20:18:24;23.80;83.30
45849;DHT22;31567;54.600;9.842;2023-06-24T20:22:04;23.60;84.30
45849;DHT22;31567;54.600;9.842;2023-06-24T20:25:44;23.40;85.10
45849;DHT22;31567;54.600;9.842;2023-06-24T20:29:23;23.30;85.80
45849;DHT22;31567;54.600;9.842;2023-06-24T20:33:03;23.10;85.50
45849;DHT22;31567;54.600;9.842;2023-06-24T20:36:42;23.00;85.70
45849;DHT22;31567;54.600;9.842;2023-06-24T20:40:22;22.90;86.20
45849;DHT22;31567;54.600;9.842;2023-06-24T20:44:01;22.80;86.60
45849;DHT22;31567;54.600;9.842;2023-06-24T20:47:42;22.70;86.90
45849;DHT22;31567;54.600;9.842;2023-06-24T20:51:22;22.60;87.50
45849;DHT22;31567;54.600;9.842;2023-06-24T20:55:02;22.50;87.80
45849;DHT22;31567;54.600;9.842;2023-06-24T20:58:41;22.40;87.90
45849;DHT22;31567;54.600;9.842;2023-06-24T21:02:21;22.40;88.00
45849;DHT22;31567;54.600;9.842;2023-06-24T21:06:00;22.30;88.10
45849;DHT22;31567;54.600;9.842;2023-06-24T21:09:40;22.20;88.20
45849;DHT22;31567;54.600;9.842;2023-06-24T21:13:20;22.10;88.20
45849;DHT22;31567;54.600;9.842;2023-06-24T21:16:59;21.90;88.60
45849;DHT22;31567;54.600;9.842;2023-06-24T21:20:39;21.80;89.10
45849;DHT22;31567;54.600;9.842;2023-06-24T21:24:18;21.80;89.40
45849;DHT22;31567;54.600;9.842;2023-06-24T21:27:58;21.60;89.50
45849;DHT22;31567;54.600;9.842;2023-06-24T21:31:38;21.50;89.70
45849;DHT22;31567;54.600;9.842;2023-06-24T21:35:17;21.40;90.00
45849;DHT22;31567;54.600;9.842;2023-06-24T21:38:57;21.30;90.10
45849;DHT22;31567;54.600;9.842;2023-06-24T21:42:36;21.20;90.30
45849;DHT22;31567;54.600;9.842;2023-06-24T21:46:16;21.20;90.30
45849;DHT22;31567;54.600;9.842;2023-06-24T21:49:55;21.10;90.40
45849;DHT22;31567;54.600;9.842;2023-06-24T21:53:35;21.00;90.40
45849;DHT22;31567;54.600;9.842;2023-06-24T21:57:15;21.00;90.50
45849;DHT22;31567;54.600;9.842;2023-06-24T22:00:55;20.90;90.40
45849;DHT22;31567;54.600;9.842;2023-06-24T22:04:34;20.80;90.50
45849;DHT22;31567;54.600;9.842;2023-06-24T22:08:14;20.50;90.60
45849;DHT22;31567;54.600;9.842;2023-06-24T22:11:55;20.40;90.80
45849;DHT22;31567;54.600;9.842;2023-06-24T22:15:34;20.30;91.00
45849;DHT22;31567;54.600;9.842;2023-06-24T22:19:14;20.20;91.30
45849;DHT22;31567;54.600;9.842;2023-06-24T22:22:55;20.10;91.40
45849;DHT22;31567;54.600;9.842;2023-06-24T22:26:35;20.10;91.60
45849;DHT22;31567;54.600;9.842;2023-06-24T22:30:14;20.00;91.70
45849;DHT22;31567;54.600;9.842;2023-06-24T22:33:54;19.90;91.90
45849;DHT22;31567;54.600;9.842;2023-06-24T22:37:33;19.90;91.90
45849;DHT22;31567;54.600;9.842;2023-06-24T22:41:13;19.90;92.10
45849;DHT22;31567;54.600;9.842;2023-06-24T22:44:53;19.90;92.20
45849;DHT22;31567;54.600;9.842;2023-06-24T22:48:32;19.90;92.10
45849;DHT22;31567;54.600;9.842;2023-06-24T22:52:12;19.90;92.20
45849;DHT22;31567;54.600;9.842;2023-06-24T22:55:51;19.90;92.20
45849;DHT22;31567;54.600;9.842;2023-06-24T22:59:31;19.90;92.30
45849;DHT22;31567;54.600;9.842;2023-06-24T23:03:11;19.90;92.30
45849;DHT22;31567;54.600;9.842;2023-06-24T23:06:50;19.90;92.30
45849;DHT22;31567;54.600;9.842;2023-06-24T23:10:30;19.80;92.20
45849;DHT22;31567;54.600;9.842;2023-06-24T23:14:10;19.70;92.10
45849;DHT22;31567;54.600;9.842;2023-06-24T23:17:50;19.50;92.20
45849;DHT22;31567;54.600;9.842;2023-06-24T23:21:30;19.30;92.40